sensor_id;sensor_type;location;lat;lon;timestamp;temperature;humidity
13344;DHT22;6741;48.964;9.406;2024-01-15T00:01:46;-3.10;99.90
13344;DHT22;6741;48.964;9.406;2024-01-15T00:04:15;-3.00;99.90
13344;DHT22;6741;48.964;9.406;2024-01-15T00:06:42;-3.00;99.90
13344;DHT22;6741;48.964;9.406;2024-01-15T00:09:09;-3.00;99.90
13344;DHT22;6741;48.964;9.406;2024-01-15T00:11:35;-2.90;99.90
13344;DHT22;6741;48.964;9.406;2024-01-15T00:14:02;-2.90;99.90
13344;DHT22;6741;48.964;9.406;2024-01-15T00:16:29;-2.90;99.90
13344;DHT22;6741;48.964;9.406;2024-01-15T00:18:56;-2.90;99.90
13344;DHT22;6741;48.964;9.406;2024-01-15T00:21:24;-2.80;99.90
13344;DHT22;6741;48.964;9.406;2024-01-15T00:23:51;-2.80;99.90
13344;DHT22;6741;48.964;9.406;2024-01-15T00:26:18;-2.80;99.90
13344;DHT22;6741;48.964;9.406;2024-01-15T00:28:45;-2.80;99.90
13344;DHT22;6741;48.964;9.406;2024-01-15T00:31:12;-2.80;99.90
13344;DHT22;6741;48.964;9.406;2024-01-15T00:33:38;-2.80;99.90
13344;DHT22;6741;48.964;9.406;2024-01-15T00:36:06;-2.80;99.90
13344;DHT22;6741;48.964;9.406;2024-01-15T00:38:34;-2.80;99.90
13344;DHT22;6741;48.964;9.406;2024-01-15T00:41:01;-2.80;99.90
13344;DHT22;6741;48.964;9.406;2024-01-15T00:43:28;-2.70;99.90
13344;DHT22;6741;48.964;9.406;2024-01-15T00:45:55;-2.70;99.90
13344;DHT22;6741;48.964;9.406;2024-01-15T00:48:22;-2.70;99.90
13344;DHT22;6741;48.964;9.406;2024-01-15T00:50:49;-2.70;99.90
13344;DHT22;6741;48.964;9.406;2024-01-15T00:53:16;-2.60;99.90
13344;DHT22;6741;48.964;9.406;2024-01-15T00:55:44;-2.60;99.90
13344;DHT22;6741;48.964;9.406;2024-01-15T00:58:11;-2.60;99.90
13344;DHT22;6741;48.964;9.406;2024-01-15T01:00:38;-2.60;99.90
13344;DHT22;6741;48.964;9.406;2024-01-15T01:03:05;-2.60;99.90
13344;DHT22;6741;48.964;9.406;2024-01-15T01:05:32;-2.60;99.90
13344;DHT22;6741;48.964;9.406;2024-01-15T01:07:59;-2.60;99.90
13344;DHT22;6741;48.964;9.406;2024-01-15T01:10:27;-2.50;99.90
13344;DHT22;6741;48.964;9.406;2024-01-15T01:12:56;-2.50;99.90
13344;DHT22;6741;48.964;9.406;2024-01-15T01:15:22;-2.50;99.90
13344;DHT22;6741;48.964;9.406;2024-01-15T01:17:50;-2.50;99.90
13344;DHT22;6741;48.964;9.406;2024-01-15T01:20:17;-2.50;99.90
13344;DHT22;6741;48.964;9.406;2024-01-15T01:22:43;-2.50;99.90
13344;DHT22;6741;48.964;9.406;2024-01-15T01:25:10;-2.50;99.90
13344;DHT22;6741;48.964;9.406;2024-01-15T01:27:37;-2.40;99.90
13344;DHT22;6741;48.964;9.406;2024-01-15T01:30:07;-2.50;99.90
13344;DHT22;6741;48.964;9.406;2024-01-15T01:32:33;-2.50;99.90
13344;DHT22;6741;48.964;9.406;2024-01-15T01:35:00;-2.40;99.90
13344;DHT22;6741;48.964;9.406;2024-01-15T01:37:27;-2.40;99.90
13344;DHT22;6741;48.964;9.406;2024-01-15T01:39:54;-2.40;99.90
13344;DHT22;6741;48.964;9.406;2024-01-15T01:42:21;-2.40;99.90
13344;DHT22;6741;48.964;9.406;2024-01-15T01:44:48;-2.40;99.90
13344;DHT22;6741;48.964;9.406;2024-01-15T01:47:16;-2.40;99.90
13344;DHT22;6741;48.964;9.406;2024-01-15T01:49:43;-2.40;99.90
13344;DHT22;6741;48.964;9.406;2024-01-15T01:52:10;-2.20;99.90
13344;DHT22;6741;48.964;9.406;2024-01-15T01:54:38;-2.30;99.90
13344;DHT22;6741;48.964;9.406;2024-01-15T01:57:07;-2.30;99.90
13344;DHT22;6741;48.964;9.406;2024-01-15T01:59:35;-2.40;99.90
13344;DHT22;6741;48.964;9.406;2024-01-15T02:02:03;-2.30;99.90
13344;DHT22;6741;48.964;9.406;2024-01-15T02:04:32;-2.30;99.90
13344;DHT22;6741;48.964;9.406;2024-01-15T02:06:59;-2.30;99.90
13344;DHT22;6741;48.964;9.406;2024-01-15T02:09:26;-2.30;99.90
13344;DHT22;6741;48.964;9.406;2024-01-15T02:11:53;-2.30;99.90
13344;DHT22;6741;48.964;9.406;2024-01-15T02:14:20;-2.30;99.90
13344;DHT22;6741;48.964;9.406;2024-01-15T02:16:47;-2.20;99.90
13344;DHT22;6741;48.964;9.406;2024-01-15T02:19:17;-2.30;99.90
13344;DHT22;6741;48.964;9.406;2024-01-15T02:21:45;-2.30;99.90
13344;DHT22;6741;48.964;9.406;2024-01-15T02:24:14;-2.20;99.90
13344;DHT22;6741;48.964;9.406;2024-01-15T02:26:40;-2.20;99.90
13344;DHT22;6741;48.964;9.406;2024-01-15T02:29:08;-2.20;99.90
13344;DHT22;6741;48.964;9.406;2024-01-15T02:31:36;-2.20;99.90
13344;DHT22;6741;48.964;9.406;2024-01-15T02:34:03;-2.20;99.90
13344;DHT22;6741;48.964;9.406;2024-01-15T02:36:30;-2.30;99.90
13344;DHT22;6741;48.964;9.406;2024-01-15T02:38:57;-2.30;99.90
13344;DHT22;6741;48.964;9.406;2024-01-15T02:41:25;-2.30;99.90
13344;DHT22;6741;48.964;9.406;2024-01-15T02:43:52;-2.30;99.90
13344;DHT22;6741;48.964;9.406;2024-01-15T02:46:19;-2.30;99.90
13344;DHT22;6741;48.964;9.406;2024-01-15T02:48:46;-2.30;99.90
13344;DHT22;6741;48.964;9.406;2024-01-15T02:51:13;-2.30;99.90
13344;DHT22;6741;48.964;9.406;2024-01-15T02:53:39;-2.30;99.90
13344;DHT22;6741;48.964;9.406;2024-01-15T02:56:07;-2.30;99.90
13344;DHT22;6741;48.964;9.406;2024-01-15T02:58:35;-2.30;99.90
13344;DHT22;6741;48.964;9.406;2024-01-15T03:01:02;-2.30;99.90
13344;DHT22;6741;48.964;9.406;2024-01-15T03:03:29;-2.30;99.90
13344;DHT22;6741;48.964;9.406;2024-01-15T03:05:58;-2.20;99.90
13344;DHT22;6741;48.964;9.406;2024-01-15T03:08:25;-2.20;99.90
13344;DHT22;6741;48.964;9.406;2024-01-15T03:10:52;-2.20;99.90
13344;DHT22;6741;48.964;9.406;2024-01-15T03:13:19;-2.20;99.90
13344;DHT22;6741;48.964;9.406;2024-01-15T03:15:47;-2.20;99.90
13344;DHT22;6741;48.964;9.406;2024-01-15T03:18:14;-2.20;99.90
13344;DHT22;6741;48.964;9.406;2024-01-15T03:20:41;-2.20;99.90
13344;DHT22;6741;48.964;9.406;2024-01-15T03:23:08;-2.20;99.90
13344;DHT22;6741;48.964;9.406;2024-01-15T03:25:35;-2.20;99.90
13344;DHT22;6741;48.964;9.406;2024-01-15T03:28:02;-2.20;99.90
13344;DHT22;6741;48.964;9.406;2024-01-15T03:30:29;-2.20;99.90
13344;DHT22;6741;48.964;9.406;2024-01-15T03:32:57;-2.20;99.90
13344;DHT22;6741;48.964;9.406;2024-01-15T03:35:24;-2.20;99.90
13344;DHT22;6741;48.964;9.406;2024-01-15T03:37:54;-2.20;99.90
13344;DHT22;6741;48.964;9.406;2024-01-15T03:40:22;-2.10;99.90
13344;DHT22;6741;48.964;9.406;2024-01-15T03:42:49;-2.10;99.90
13344;DHT22;6741;48.964;9.406;2024-01-15T03:45:15;-2.10;99.90
13344;DHT22;6741;48.964;9.406;2024-01-15T03:47:42;-2.10;99.90
13344;DHT22;6741;48.964;9.406;2024-01-15T03:50:11;-2.10;99.90
13344;DHT22;6741;48.964;9.406;2024-01-15T03:52:37;-2.10;99.90
13344;DHT22;6741;48.964;9.406;2024-01-15T03:55:05;-2.00;99.90
13344;DHT22;6741;48.964;9.406;2024-01-15T03:57:32;-1.90;99.90
13344;DHT22;6741;48.964;9.406;2024-01-15T03:59:59;-1.80;99.90
13344;DHT22;6741;48.964;9.406;2024-01-15T04:02:26;-1.70;99.90
13344;DHT22;6741;48.964;9.406;2024-01-15T04:04:52;-1.70;99.90
13344;DHT22;6741;48.964;9.406;2024-01-15T04:07:21;-1.70;99.90
13344;DHT22;6741;48.964;9.406;2024-01-15T04:09:48;-1.80;99.90
13344;DHT22;6741;48.964;9.406;2024-01-15T04:12:14;-2.00;99.90
13344;DHT22;6741;48.964;9.406;2024-01-15T04:14:41;-2.00;99.90
13344;DHT22;6741;48.964;9.406;2024-01-15T04:17:08;-2.00;99.90
13344;DHT22;6741;48.964;9.406;2024-01-15T04:19:35;-2.00;99.90
13344;DHT22;6741;48.964;9.406;2024-01-15T04:22:02;-2.00;99.90
13344;DHT22;6741;48.964;9.406;2024-01-15T04:24:31;-2.10;99.90
13344;DHT22;6741;48.964;9.406;2024-01-15T04:26:58;-2.10;99.90
13344;DHT22;6741;48.964;9.406;2024-01-15T04:29:25;-2.10;99.90
13344;DHT22;6741;48.964;9.406;2024-01-15T04:31:53;-2.00;99.90
13344;DHT22;6741;48.964;9.406;2024-01-15T04:34:20;-2.00;99.90
13344;DHT22;6741;48.964;9.406;2024-01-15T04:36:47;-2.00;99.90
13344;DHT22;6741;48.964;9.406;2024-01-15T04:39:13;-1.90;99.90
13344;DHT22;6741;48.964;9.406;2024-01-15T04:41:42;-1.80;99.90
13344;DHT22;6741;48.964;9.406;2024-01-15T04:44:09;-1.80;99.90
13344;DHT22;6741;48.964;9.406;2024-01-15T04:46:35;-1.80;99.90
13344;DHT22;6741;48.964;9.406;2024-01-15T04:49:02;-1.90;99.90
13344;DHT22;6741;48.964;9.406;2024-01-15T04:51:29;-1.90;99.90
13344;DHT22;6741;48.964;9.406;2024-01-15T04:53:56;-1.90;99.90
13344;DHT22;6741;48.964;9.406;2024-01-15T04:56:23;-1.80;99.90
13344;DHT22;6741;48.964;9.406;2024-01-15T04:58:51;-1.80;99.90
13344;DHT22;6741;48.964;9.406;2024-01-15T05:01:18;-1.90;99.90
13344;DHT22;6741;48.964;9.406;2024-01-15T05:03:45;-1.90;99.90
13344;DHT22;6741;48.964;9.406;2024-01-15T05:06:12;-1.90;99.90
13344;DHT22;6741;48.964;9.406;2024-01-15T05:08:39;-1.90;99.90
13344;DHT22;6741;48.964;9.406;2024-01-15T05:11:06;-1.90;99.90
13344;DHT22;6741;48.964;9.406;2024-01-15T05:13:33;-2.00;99.90
13344;DHT22;6741;48.964;9.406;2024-01-15T05:16:01;-1.90;99.90
13344;DHT22;6741;48.964;9.406;2024-01-15T05:18:28;-1.90;99.90
13344;DHT22;6741;48.964;9.406;2024-01-15T05:20:55;-1.90;99.90
13344;DHT22;6741;48.964;9.406;2024-01-15T05:23:21;-2.00;99.90
13344;DHT22;6741;48.964;9.406;2024-01-15T05:25:48;-2.00;99.90
13344;DHT22;6741;48.964;9.406;2024-01-15T05:28:15;-2.00;99.90
13344;DHT22;6741;48.964;9.406;2024-01-15T05:30:42;-2.00;99.90
13344;DHT22;6741;48.964;9.406;2024-01-15T05:33:11;-2.10;99.90
13344;DHT22;6741;48.964;9.406;2024-01-15T05:35:38;-2.00;99.90
13344;DHT22;6741;48.964;9.406;2024-01-15T05:38:04;-1.90;99.90
13344;DHT22;6741;48.964;9.406;2024-01-15T05:40:31;-1.90;99.90
13344;DHT22;6741;48.964;9.406;2024-01-15T05:42:58;-1.80;99.90
13344;DHT22;6741;48.964;9.406;2024-01-15T05:45:26;-1.70;99.90
13344;DHT22;6741;48.964;9.406;2024-01-15T05:47:54;-1.60;99.90
13344;DHT22;6741;48.964;9.406;2024-01-15T05:50:23;-1.60;99.90
13344;DHT22;6741;48.964;9.406;2024-01-15T05:52:50;-1.70;99.90
13344;DHT22;6741;48.964;9.406;2024-01-15T05:55:17;-1.60;99.90
13344;DHT22;6741;48.964;9.406;2024-01-15T05:57:44;-1.60;99.90
13344;DHT22;6741;48.964;9.406;2024-01-15T06:00:12;-1.60;99.90
13344;DHT22;6741;48.964;9.406;2024-01-15T06:02:39;-1.60;99.90
13344;DHT22;6741;48.964;9.406;2024-01-15T06:05:07;-1.60;99.90
13344;DHT22;6741;48.964;9.406;2024-01-15T06:07:35;-1.60;99.90
13344;DHT22;6741;48.964;9.406;2024-01-15T06:10:02;-1.40;99.90
13344;DHT22;6741;48.964;9.406;2024-01-15T06:12:30;-1.40;99.90
13344;DHT22;6741;48.964;9.406;2024-01-15T06:14:58;-1.40;99.90
13344;DHT22;6741;48.964;9.406;2024-01-15T06:17:25;-1.50;99.90
13344;DHT22;6741;48.964;9.406;2024-01-15T06:19:52;-1.50;99.90
13344;DHT22;6741;48.964;9.406;2024-01-15T06:22:18;-1.50;99.90
13344;DHT22;6741;48.964;9.406;2024-01-15T06:24:47;-1.50;99.90
13344;DHT22;6741;48.964;9.406;2024-01-15T06:27:14;-1.50;99.90
13344;DHT22;6741;48.964;9.406;2024-01-15T06:29:45;-1.50;99.90
13344;DHT22;6741;48.964;9.406;2024-01-15T06:32:12;-1.50;99.90
13344;DHT22;6741;48.964;9.406;2024-01-15T06:34:39;-1.50;99.90
13344;DHT22;6741;48.964;9.406;2024-01-15T06:37:06;-1.50;99.90
13344;DHT22;6741;48.964;9.406;2024-01-15T06:39:34;-1.50;99.90
13344;DHT22;6741;48.964;9.406;2024-01-15T06:42:02;-1.50;99.90
13344;DHT22;6741;48.964;9.406;2024-01-15T06:44:29;-1.60;99.90
13344;DHT22;6741;48.964;9.406;2024-01-15T06:46:56;-1.60;99.90
13344;DHT22;6741;48.964;9.406;2024-01-15T06:49:27;-1.60;99.90
13344;DHT22;6741;48.964;9.406;2024-01-15T06:51:54;-1.60;99.90
13344;DHT22;6741;48.964;9.406;2024-01-15T06:54:21;-1.60;99.90
13344;DHT22;6741;48.964;9.406;2024-01-15T06:56:49;-1.60;99.90
13344;DHT22;6741;48.964;9.406;2024-01-15T06:59:17;-1.60;99.90
13344;DHT22;6741;48.964;9.406;2024-01-15T07:01:44;-1.60;99.90
13344;DHT22;6741;48.964;9.406;2024-01-15T07:04:11;-1.60;99.90
13344;DHT22;6741;48.964;9.406;2024-01-15T07:06:38;-1.60;99.90
13344;DHT22;6741;48.964;9.406;2024-01-15T07:09:04;-1.60;99.90
13344;DHT22;6741;48.964;9.406;2024-01-15T07:11:31;-1.60;99.90
13344;DHT22;6741;48.964;9.406;2024-01-15T07:13:58;-1.60;99.90
13344;DHT22;6741;48.964;9.406;2024-01-15T07:16:26;-1.60;99.90
13344;DHT22;6741;48.964;9.406;2024-01-15T07:18:53;-1.60;99.90
13344;DHT22;6741;48.964;9.406;2024-01-15T07:21:20;-1.60;99.90
13344;DHT22;6741;48.964;9.406;2024-01-15T07:23:47;-1.60;99.90
13344;DHT22;6741;48.964;9.406;2024-01-15T07:26:14;-1.60;99.90
13344;DHT22;6741;48.964;9.406;2024-01-15T07:28:41;-1.60;99.90
13344;DHT22;6741;48.964;9.406;2024-01-15T07:31:08;-1.70;99.90
13344;DHT22;6741;48.964;9.406;2024-01-15T07:33:37;-1.70;99.90
13344;DHT22;6741;48.964;9.406;2024-01-15T07:36:04;-1.70;99.90
13344;DHT22;6741;48.964;9.406;2024-01-15T07:38:32;-1.70;99.90
13344;DHT22;6741;48.964;9.406;2024-01-15T07:40:59;-1.70;99.90
13344;DHT22;6741;48.964;9.406;2024-01-15T07:43:26;-1.70;99.90
13344;DHT22;6741;48.964;9.406;2024-01-15T07:45:53;-1.60;99.90
13344;DHT22;6741;48.964;9.406;2024-01-15T07:48:20;-1.50;99.90
13344;DHT22;6741;48.964;9.406;2024-01-15T07:50:48;-1.50;99.90
13344;DHT22;6741;48.964;9.406;2024-01-15T07:53:15;-1.50;99.90
13344;DHT22;6741;48.964;9.406;2024-01-15T07:55:42;-1.50;99.90
13344;DHT22;6741;48.964;9.406;2024-01-15T07:58:11;-1.20;99.90
13344;DHT22;6741;48.964;9.406;2024-01-15T08:00:38;-1.40;99.90
13344;DHT22;6741;48.964;9.406;2024-01-15T08:03:05;-1.40;99.90
13344;DHT22;6741;48.964;9.406;2024-01-15T08:05:32;-1.40;99.90
13344;DHT22;6741;48.964;9.406;2024-01-15T08:08:00;-1.40;99.90
13344;DHT22;6741;48.964;9.406;2024-01-15T08:10:27;-1.40;99.90
13344;DHT22;6741;48.964;9.406;2024-01-15T08:12:54;-1.30;99.90
13344;DHT22;6741;48.964;9.406;2024-01-15T08:15:21;-1.30;99.90
13344;DHT22;6741;48.964;9.406;2024-01-15T08:17:48;-1.30;99.90
13344;DHT22;6741;48.964;9.406;2024-01-15T08:20:16;-1.30;99.90
13344;DHT22;6741;48.964;9.406;2024-01-15T08:22:43;-1.30;99.90
13344;DHT22;6741;48.964;9.406;2024-01-15T08:25:11;-1.20;99.90
13344;DHT22;6741;48.964;9.406;2024-01-15T08:27:38;-1.20;99.90
13344;DHT22;6741;48.964;9.406;2024-01-15T08:30:06;-1.20;99.90
13344;DHT22;6741;48.964;9.406;2024-01-15T08:32:33;-1.10;99.90
13344;DHT22;6741;48.964;9.406;2024-01-15T08:35:03;-1.10;99.90
13344;DHT22;6741;48.964;9.406;2024-01-15T08:37:30;-1.00;99.90
13344;DHT22;6741;48.964;9.406;2024-01-15T08:39:57;-1.00;99.90
13344;DHT22;6741;48.964;9.406;2024-01-15T08:42:25;-0.80;99.90
13344;DHT22;6741;48.964;9.406;2024-01-15T08:44:52;-0.90;99.90
13344;DHT22;6741;48.964;9.406;2024-01-15T08:47:19;-0.90;99.90
13344;DHT22;6741;48.964;9.406;2024-01-15T08:49:45;-0.90;99.90
13344;DHT22;6741;48.964;9.406;2024-01-15T08:52:12;-0.80;99.90
13344;DHT22;6741;48.964;9.406;2024-01-15T08:54:40;-0.80;99.90
13344;DHT22;6741;48.964;9.406;2024-01-15T08:57:07;-0.80;99.90
13344;DHT22;6741;48.964;9.406;2024-01-15T08:59:35;-0.70;99.90
13344;DHT22;6741;48.964;9.406;2024-01-15T09:02:02;-0.70;99.90
13344;DHT22;6741;48.964;9.406;2024-01-15T09:04:29;-0.70;99.90
13344;DHT22;6741;48.964;9.406;2024-01-15T09:06:56;-0.60;99.90
13344;DHT22;6741;48.964;9.406;2024-01-15T09:09:23;-0.60;99.90
13344;DHT22;6741;48.964;9.406;2024-01-15T09:11:50;-0.60;99.90
13344;DHT22;6741;48.964;9.406;2024-01-15T09:14:17;-0.50;99.90
13344;DHT22;6741;48.964;9.406;2024-01-15T09:16:46;-0.40;99.90
13344;DHT22;6741;48.964;9.406;2024-01-15T09:19:13;-0.40;99.90
13344;DHT22;6741;48.964;9.406;2024-01-15T09:21:40;-0.30;99.90
13344;DHT22;6741;48.964;9.406;2024-01-15T09:24:07;-0.20;99.90
13344;DHT22;6741;48.964;9.406;2024-01-15T09:26:34;-0.40;99.90
13344;DHT22;6741;48.964;9.406;2024-01-15T09:29:01;-0.30;99.90
13344;DHT22;6741;48.964;9.406;2024-01-15T09:31:28;-0.30;99.90
13344;DHT22;6741;48.964;9.406;2024-01-15T09:33:56;-0.30;99.90
13344;DHT22;6741;48.964;9.406;2024-01-15T09:36:25;-0.20;99.90
13344;DHT22;6741;48.964;9.406;2024-01-15T09:38:52;-0.20;99.90
13344;DHT22;6741;48.964;9.406;2024-01-15T09:41:19;-0.20;99.90
13344;DHT22;6741;48.964;9.406;2024-01-15T09:43:46;-0.10;99.90
13344;DHT22;6741;48.964;9.406;2024-01-15T09:46:14;-0.20;99.90
13344;DHT22;6741;48.964;9.406;2024-01-15T09:48:42;0.00;99.90
13344;DHT22;6741;48.964;9.406;2024-01-15T09:51:11;-0.10;99.90
13344;DHT22;6741;48.964;9.406;2024-01-15T09:53:39;0.00;99.90
13344;DHT22;6741;48.964;9.406;2024-01-15T09:56:08;0.00;99.90
13344;DHT22;6741;48.964;9.406;2024-01-15T09:58:38;0.10;99.90
13344;DHT22;6741;48.964;9.406;2024-01-15T10:01:05;0.10;99.90
13344;DHT22;6741;48.964;9.406;2024-01-15T10:03:33;0.10;99.90
13344;DHT22;6741;48.964;9.406;2024-01-15T10:06:00;0.10;99.90
13344;DHT22;6741;48.964;9.406;2024-01-15T10:08:29;0.10;99.90
13344;DHT22;6741;48.964;9.406;2024-01-15T10:10:56;0.10;99.90
13344;DHT22;6741;48.964;9.406;2024-01-15T10:13:23;0.10;99.90
13344;DHT22;6741;48.964;9.406;2024-01-15T10:15:50;0.10;99.90
13344;DHT22;6741;48.964;9.406;2024-01-15T10:18:16;0.10;99.90
13344;DHT22;6741;48.964;9.406;2024-01-15T10:20:45;0.10;99.90
13344;DHT22;6741;48.964;9.406;2024-01-15T10:23:14;0.20;99.90
13344;DHT22;6741;48.964;9.406;2024-01-15T10:25:43;0.20;99.90
13344;DHT22;6741;48.964;9.406;2024-01-15T10:28:10;0.30;99.90
13344;DHT22;6741;48.964;9.406;2024-01-15T10:30:36;0.30;99.90
13344;DHT22;6741;48.964;9.406;2024-01-15T10:33:04;0.30;99.90
13344;DHT22;6741;48.964;9.406;2024-01-15T10:35:32;0.40;99.90
13344;DHT22;6741;48.964;9.406;2024-01-15T10:37:59;0.40;99.90
13344;DHT22;6741;48.964;9.406;2024-01-15T10:40:26;0.40;99.90
13344;DHT22;6741;48.964;9.406;2024-01-15T10:42:55;0.40;99.90
13344;DHT22;6741;48.964;9.406;2024-01-15T10:45:22;0.30;99.90
13344;DHT22;6741;48.964;9.406;2024-01-15T10:47:48;0.40;99.90
13344;DHT22;6741;48.964;9.406;2024-01-15T10:50:15;0.40;99.90
13344;DHT22;6741;48.964;9.406;2024-01-15T10:52:42;0.50;99.90
13344;DHT22;6741;48.964;9.406;2024-01-15T10:55:10;0.50;99.90
13344;DHT22;6741;48.964;9.406;2024-01-15T10:57:37;0.50;99.90
13344;DHT22;6741;48.964;9.406;2024-01-15T11:00:07;0.50;99.90
13344;DHT22;6741;48.964;9.406;2024-01-15T11:02:40;0.50;99.90
13344;DHT22;6741;48.964;9.406;2024-01-15T11:05:07;0.50;99.90
13344;DHT22;6741;48.964;9.406;2024-01-15T11:07:34;0.50;99.90
13344;DHT22;6741;48.964;9.406;2024-01-15T11:10:03;0.50;99.90
13344;DHT22;6741;48.964;9.406;2024-01-15T11:12:31;0.50;99.90
13344;DHT22;6741;48.964;9.406;2024-01-15T11:15:02;0.40;99.90
13344;DHT22;6741;48.964;9.406;2024-01-15T11:17:57;0.50;99.90
13344;DHT22;6741;48.964;9.406;2024-01-15T11:20:24;0.10;99.90
13344;DHT22;6741;48.964;9.406;2024-01-15T11:22:51;-0.10;99.90
13344;DHT22;6741;48.964;9.406;2024-01-15T11:25:19;-0.10;99.90
13344;DHT22;6741;48.964;9.406;2024-01-15T11:27:46;-0.20;99.90
13344;DHT22;6741;48.964;9.406;2024-01-15T11:30:17;-0.10;99.90
13344;DHT22;6741;48.964;9.406;2024-01-15T11:32:46;-0.30;99.90
13344;DHT22;6741;48.964;9.406;2024-01-15T11:35:14;-0.30;99.90
13344;DHT22;6741;48.964;9.406;2024-01-15T11:37:57;-0.30;99.90
13344;DHT22;6741;48.964;9.406;2024-01-15T11:40:37;-0.40;99.90
13344;DHT22;6741;48.964;9.406;2024-01-15T11:43:05;-0.40;99.90
13344;DHT22;6741;48.964;9.406;2024-01-15T11:45:32;-0.40;99.90
13344;DHT22;6741;48.964;9.406;2024-01-15T11:48:14;-0.40;99.90
13344;DHT22;6741;48.964;9.406;2024-01-15T11:50:43;-0.30;99.90
13344;DHT22;6741;48.964;9.406;2024-01-15T11:53:16;-0.40;99.90
13344;DHT22;6741;48.964;9.406;2024-01-15T11:55:45;-0.40;99.90
13344;DHT22;6741;48.964;9.406;2024-01-15T11:58:14;-0.40;99.90
13344;DHT22;6741;48.964;9.406;2024-01-15T12:00:43;-0.40;99.90
13344;DHT22;6741;48.964;9.406;2024-01-15T12:03:10;-0.40;99.90
13344;DHT22;6741;48.964;9.406;2024-01-15T12:05:39;-0.40;99.90
13344;DHT22;6741;48.964;9.406;2024-01-15T12:08:07;-0.30;99.90
13344;DHT22;6741;48.964;9.406;2024-01-15T12:10:37;0.00;99.90
13344;DHT22;6741;48.964;9.406;2024-01-15T12:13:06;-0.20;99.90
13344;DHT22;6741;48.964;9.406;2024-01-15T12:15:35;-0.30;99.90
13344;DHT22;6741;48.964;9.406;2024-01-15T12:18:04;-0.30;99.90
13344;DHT22;6741;48.964;9.406;2024-01-15T12:20:32;-0.30;99.90
13344;DHT22;6741;48.964;9.406;2024-01-15T12:23:01;-0.20;99.90
13344;DHT22;6741;48.964;9.406;2024-01-15T12:25:29;-0.30;99.90
13344;DHT22;6741;48.964;9.406;2024-01-15T12:27:56;-0.30;99.90
13344;DHT22;6741;48.964;9.406;2024-01-15T12:30:23;-0.30;99.90
13344;DHT22;6741;48.964;9.406;2024-01-15T12:32:52;-0.30;99.90
13344;DHT22;6741;48.964;9.406;2024-01-15T12:35:19;-0.30;99.90
13344;DHT22;6741;48.964;9.406;2024-01-15T12:37:46;-0.30;99.90
13344;DHT22;6741;48.964;9.406;2024-01-15T12:40:19;-0.30;99.90
13344;DHT22;6741;48.964;9.406;2024-01-15T12:42:47;-0.30;99.90
13344;DHT22;6741;48.964;9.406;2024-01-15T12:45:14;-0.30;99.90
13344;DHT22;6741;48.964;9.406;2024-01-15T12:47:41;-0.30;99.90
13344;DHT22;6741;48.964;9.406;2024-01-15T12:50:09;0.00;99.90
13344;DHT22;6741;48.964;9.406;2024-01-15T12:52:36;-0.10;99.90
13344;DHT22;6741;48.964;9.406;2024-01-15T12:55:04;-0.20;99.90
13344;DHT22;6741;48.964;9.406;2024-01-15T12:57:34;-0.20;99.90
13344;DHT22;6741;48.964;9.406;2024-01-15T13:00:02;-0.20;99.90
13344;DHT22;6741;48.964;9.406;2024-01-15T13:02:32;-0.20;99.90
13344;DHT22;6741;48.964;9.406;2024-01-15T13:04:59;-0.20;99.90
13344;DHT22;6741;48.964;9.406;2024-01-15T13:07:26;-0.20;99.90
13344;DHT22;6741;48.964;9.406;2024-01-15T13:09:53;-0.20;99.90
13344;DHT22;6741;48.964;9.406;2024-01-15T13:12:20;-0.10;99.90
13344;DHT22;6741;48.964;9.406;2024-01-15T13:14:49;-0.10;99.90
13344;DHT22;6741;48.964;9.406;2024-01-15T13:17:16;-0.10;99.90
13344;DHT22;6741;48.964;9.406;2024-01-15T13:19:43;-0.10;99.90
13344;DHT22;6741;48.964;9.406;2024-01-15T13:22:09;-0.10;99.90
13344;DHT22;6741;48.964;9.406;2024-01-15T13:24:39;-0.10;99.90
13344;DHT22;6741;48.964;9.406;2024-01-15T13:27:06;-0.10;99.90
13344;DHT22;6741;48.964;9.406;2024-01-15T13:29:33;-0.10;99.90
13344;DHT22;6741;48.964;9.406;2024-01-15T13:32:01;-0.10;99.90
13344;DHT22;6741;48.964;9.406;2024-01-15T13:34:30;-0.20;99.90
13344;DHT22;6741;48.964;9.406;2024-01-15T13:36:57;-0.20;99.90
13344;DHT22;6741;48.964;9.406;2024-01-15T13:39:23;-0.20;99.90
13344;DHT22;6741;48.964;9.406;2024-01-15T13:41:50;-0.10;99.90
13344;DHT22;6741;48.964;9.406;2024-01-15T13:44:18;-0.10;99.90
13344;DHT22;6741;48.964;9.406;2024-01-15T13:46:45;-0.10;99.90
13344;DHT22;6741;48.964;9.406;2024-01-15T13:49:13;0.20;99.90
13344;DHT22;6741;48.964;9.406;2024-01-15T13:51:40;-0.10;99.90
13344;DHT22;6741;48.964;9.406;2024-01-15T13:54:07;-0.10;99.90
13344;DHT22;6741;48.964;9.406;2024-01-15T13:56:34;-0.10;99.90
13344;DHT22;6741;48.964;9.406;2024-01-15T13:59:01;-0.10;99.90
13344;DHT22;6741;48.964;9.406;2024-01-15T14:01:29;-0.20;99.90
13344;DHT22;6741;48.964;9.406;2024-01-15T14:03:57;-0.20;99.90
13344;DHT22;6741;48.964;9.406;2024-01-15T14:06:25;-0.20;99.90
13344;DHT22;6741;48.964;9.406;2024-01-15T14:08:52;-0.20;99.90
13344;DHT22;6741;48.964;9.406;2024-01-15T14:11:19;-0.10;99.90
13344;DHT22;6741;48.964;9.406;2024-01-15T14:13:46;-0.10;99.90
13344;DHT22;6741;48.964;9.406;2024-01-15T14:16:13;-0.10;99.90
13344;DHT22;6741;48.964;9.406;2024-01-15T14:18:40;-0.30;99.90
13344;DHT22;6741;48.964;9.406;2024-01-15T14:21:07;-0.30;99.90
13344;DHT22;6741;48.964;9.406;2024-01-15T14:23:36;-0.10;99.90
13344;DHT22;6741;48.964;9.406;2024-01-15T14:26:03;-0.10;99.90
13344;DHT22;6741;48.964;9.406;2024-01-15T14:28:30;-0.10;99.90
13344;DHT22;6741;48.964;9.406;2024-01-15T14:30:57;0.00;99.90
13344;DHT22;6741;48.964;9.406;2024-01-15T14:33:26;0.00;99.90
13344;DHT22;6741;48.964;9.406;2024-01-15T14:35:53;-0.10;99.90
13344;DHT22;6741;48.964;9.406;2024-01-15T14:38:20;-0.10;99.90
13344;DHT22;6741;48.964;9.406;2024-01-15T14:40:48;-0.10;99.90
13344;DHT22;6741;48.964;9.406;2024-01-15T14:43:15;-0.10;99.90
13344;DHT22;6741;48.964;9.406;2024-01-15T14:45:42;-0.20;99.90
13344;DHT22;6741;48.964;9.406;2024-01-15T14:48:10;-0.10;99.90
13344;DHT22;6741;48.964;9.406;2024-01-15T14:50:38;0.10;99.90
13344;DHT22;6741;48.964;9.406;2024-01-15T14:53:05;0.00;99.90
13344;DHT22;6741;48.964;9.406;2024-01-15T14:55:32;-0.10;99.90
13344;DHT22;6741;48.964;9.406;2024-01-15T14:58:00;-0.10;99.90
13344;DHT22;6741;48.964;9.406;2024-01-15T15:00:28;-0.10;99.90
13344;DHT22;6741;48.964;9.406;2024-01-15T15:02:55;-0.10;99.90
13344;DHT22;6741;48.964;9.406;2024-01-15T15:05:21;-0.20;99.90
13344;DHT22;6741;48.964;9.406;2024-01-15T15:07:48;-0.10;99.90
13344;DHT22;6741;48.964;9.406;2024-01-15T15:10:15;-0.10;99.90
13344;DHT22;6741;48.964;9.406;2024-01-15T15:12:42;-0.10;99.90
13344;DHT22;6741;48.964;9.406;2024-01-15T15:15:11;-0.10;99.90
13344;DHT22;6741;48.964;9.406;2024-01-15T15:17:39;-0.10;99.90
13344;DHT22;6741;48.964;9.406;2024-01-15T15:20:06;-0.10;99.90
13344;DHT22;6741;48.964;9.406;2024-01-15T15:22:34;-0.10;99.90
13344;DHT22;6741;48.964;9.406;2024-01-15T15:25:01;-0.20;99.90
13344;DHT22;6741;48.964;9.406;2024-01-15T15:27:28;-0.10;99.90
13344;DHT22;6741;48.964;9.406;2024-01-15T15:29:54;-0.20;99.90
13344;DHT22;6741;48.964;9.406;2024-01-15T15:32:23;-0.10;99.90
13344;DHT22;6741;48.964;9.406;2024-01-15T15:34:50;-0.20;99.90
13344;DHT22;6741;48.964;9.406;2024-01-15T15:37:17;-0.10;99.90
13344;DHT22;6741;48.964;9.406;2024-01-15T15:39:44;-0.10;99.90
13344;DHT22;6741;48.964;9.406;2024-01-15T15:42:11;-0.10;99.90
13344;DHT22;6741;48.964;9.406;2024-01-15T15:44:39;0.10;99.90
13344;DHT22;6741;48.964;9.406;2024-01-15T15:47:11;-0.10;99.90
13344;DHT22;6741;48.964;9.406;2024-01-15T15:49:41;-0.10;99.90